Time;durP1;ratioP1;P1;durP2;ratioP2;P2;SDS_P1;SDS_P2;PMS_P1;PMS_P2;Temp;Humidity;BMP_temperature;BMP_pressure;BME280_temperature;BME280_humidity;BME280_pressure;Samples;Min_cycle;Max_cycle;Signal;HPM_P1;HPM_P2
2022/07/08 00:01:43;;;;;;;6.10;3.28;;;20.40;60.50;;;;;;4949426;28;20034;-76
2022/07/08 00:04:09;;;;;;;3.45;2.75;;;20.40;60.60;;;;;;4933905;28;20154;-76
2022/07/08 00:06:35;;;;;;;9.30;3.92;;;20.30;60.50;;;;;;4954041;28;20135;-77
2022/07/08 00:09:01;;;;;;;4.07;2.50;;;20.30;60.60;;;;;;4913863;28;20122;-77
2022/07/08 00:11:26;;;;;;;5.18;3.63;;;20.20;60.50;;;;;;4946484;28;20366;-77
2022/07/08 00:13:52;;;;;;;2.55;2.03;;;20.20;60.60;;;;;;4928057;28;20023;-76
2022/07/08 00:16:18;;;;;;;5.70;3.17;;;20.20;60.70;;;;;;4952415;28;20567;-77
2022/07/08 00:18:44;;;;;;;5.05;2.88;;;20.10;60.60;;;;;;4954193;28;20118;-77
2022/07/08 00:21:10;;;;;;;4.70;3.53;;;20.10;60.70;;;;;;4949522;28;20027;-76
2022/07/08 00:23:36;;;;;;;4.25;3.22;;;20.10;60.80;;;;;;4953597;28;20117;-76
2022/07/08 00:26:02;;;;;;;4.68;2.90;;;20.00;60.70;;;;;;4946497;28;20473;-76
2022/07/08 00:28:28;;;;;;;5.40;2.63;;;19.90;60.60;;;;;;4945883;28;20123;-77
2022/07/08 00:30:54;;;;;;;5.03;3.63;;;19.90;60.60;;;;;;4949094;28;20449;-77
2022/07/08 00:33:20;;;;;;;3.58;2.95;;;19.90;60.70;;;;;;4952089;28;20474;-76
2022/07/08 00:35:46;;;;;;;5.35;3.38;;;19.80;60.70;;;;;;4940951;28;20048;-76
2022/07/08 00:38:12;;;;;;;3.00;2.58;;;19.80;60.80;;;;;;4947591;28;20436;-77
2022/07/08 00:40:38;;;;;;;7.30;2.88;;;19.70;60.70;;;;;;4949576;28;20039;-77
2022/07/08 00:43:04;;;;;;;3.55;2.95;;;19.70;60.80;;;;;;4948860;28;20027;-78
2022/07/08 00:45:30;;;;;;;4.07;2.75;;;19.70;60.90;;;;;;4941763;28;20041;-77
2022/07/08 00:47:56;;;;;;;2.70;2.50;;;19.60;60.70;;;;;;4943628;28;20063;-76
2022/07/08 00:50:22;;;;;;;3.45;3.13;;;19.60;60.80;;;;;;4949348;28;20062;-78
2022/07/08 00:52:48;;;;;;;3.20;2.83;;;19.50;60.80;;;;;;4957256;28;20035;-77
2022/07/08 00:55:15;;;;;;;3.63;2.60;;;19.50;61.40;;;;;;4945713;28;20043;-78
2022/07/08 00:57:41;;;;;;;3.10;2.47;;;19.50;60.90;;;;;;4949237;28;20408;-76
2022/07/08 01:00:08;;;;;;;3.10;2.78;;;19.40;60.80;;;;;;4952442;28;20015;-76
2022/07/08 01:02:34;;;;;;;3.72;2.40;;;19.40;60.90;;;;;;4947164;28;20055;-76
2022/07/08 01:05:00;;;;;;;4.35;2.60;;;19.40;61.00;;;;;;4962253;28;20070;-76
2022/07/08 01:07:26;;;;;;;4.00;2.40;;;19.30;60.90;;;;;;4949063;28;20031;-77
2022/07/08 01:09:52;;;;;;;3.15;2.85;;;19.30;61.00;;;;;;4961751;28;20027;-76
2022/07/08 01:12:18;;;;;;;6.38;3.35;;;19.30;61.10;;;;;;4945243;28;20027;-76
2022/07/08 01:14:44;;;;;;;3.33;2.90;;;19.20;60.90;;;;;;4967833;28;20583;-77
2022/07/08 01:17:10;;;;;;;4.82;3.03;;;19.20;61.00;;;;;;4925467;28;20033;-77
2022/07/08 01:19:36;;;;;;;3.28;2.80;;;19.20;61.10;;;;;;4932707;28;20031;-76
2022/07/08 01:22:03;;;;;;;2.85;2.45;;;19.10;61.00;;;;;;4943636;28;20097;-77
2022/07/08 01:24:29;;;;;;;3.28;2.83;;;19.10;61.10;;;;;;4951182;28;20413;-77
2022/07/08 01:26:56;;;;;;;3.05;2.78;;;19.10;61.20;;;;;;4952187;28;20085;-76
2022/07/08 01:29:23;;;;;;;4.80;3.45;;;19.00;61.00;;;;;;4953432;28;20965;-76
2022/07/08 01:32:00;;;;;;;4.88;2.78;;;19.00;61.10;;;;;;4948007;28;20146;-76
2022/07/08 01:34:26;;;;;;;5.05;2.85;;;19.00;61.30;;;;;;4954864;28;20646;-77
2022/07/08 01:36:52;;;;;;;3.53;2.50;;;19.00;61.30;;;;;;4951073;28;20131;-78
2022/07/08 01:39:18;;;;;;;4.40;2.33;;;18.90;61.10;;;;;;4948014;28;20046;-76
2022/07/08 01:41:44;;;;;;;4.55;3.15;;;18.90;61.20;;;;;;4943841;28;20502;-77
2022/07/08 01:44:10;;;;;;;5.57;2.30;;;18.90;61.30;;;;;;4930973;28;20090;-77
2022/07/08 01:46:36;;;;;;;2.85;2.53;;;18.80;61.20;;;;;;4955528;28;20500;-76
2022/07/08 01:49:02;;;;;;;3.17;2.47;;;18.80;61.30;;;;;;4950538;28;20120;-77
2022/07/08 01:51:28;;;;;;;3.72;3.15;;;18.70;61.20;;;;;;4952504;28;20207;-78
2022/07/08 01:53:54;;;;;;;3.63;2.63;;;18.70;61.20;;;;;;4960364;28;20027;-77
2022/07/08 01:56:20;;;;;;;3.72;2.63;;;18.70;61.40;;;;;;4954662;28;20035;-77
2022/07/08 01:58:46;;;;;;;3.38;2.05;;;18.60;61.20;;;;;;4957243;28;20027;-76
2022/07/08 02:01:12;;;;;;;4.07;2.60;;;18.60;61.40;;;;;;4960550;28;20046;-78
2022/07/08 02:03:38;;;;;;;3.97;2.45;;;18.50;61.20;;;;;;4948397;28;20035;-78
2022/07/08 02:06:04;;;;;;;2.83;2.40;;;18.50;61.30;;;;;;4946762;28;20066;-77
2022/07/08 02:08:29;;;;;;;4.55;2.35;;;18.50;61.40;;;;;;4939753;28;20058;-78
2022/07/08 02:13:40;;;;;;;2.80;2.15;;;18.40;61.40;;;;;;4954169;28;20162;-77
2022/07/08 02:16:06;;;;;;;3.47;2.15;;;18.40;61.40;;;;;;4959795;28;20118;-77
2022/07/08 02:18:32;;;;;;;2.92;2.63;;;18.40;61.50;;;;;;4952730;28;21226;-77
2022/07/08 02:20:58;;;;;;;2.65;2.00;;;18.40;61.60;;;;;;4960222;28;20170;-78
2022/07/08 02:23:24;;;;;;;2.97;2.08;;;18.30;61.40;;;;;;4959970;28;20121;-77
2022/07/08 02:25:50;;;;;;;4.25;2.60;;;18.30;61.50;;;;;;4936175;28;20023;-77
2022/07/08 02:28:16;;;;;;;3.13;2.08;;;18.30;61.60;;;;;;4958602;28;20366;-76
2022/07/08 02:30:42;;;;;;;3.40;2.38;;;18.30;61.60;;;;;;4951876;28;20038;-76
2022/07/08 02:33:08;;;;;;;3.65;2.60;;;18.20;61.50;;;;;;4947390;28;20039;-76
2022/07/08 02:35:34;;;;;;;3.35;2.28;;;18.20;61.60;;;;;;4938764;28;20065;-76
2022/07/08 02:37:59;;;;;;;3.38;2.38;;;18.20;61.60;;;;;;4940008;28;20161;-77
2022/07/08 02:40:25;;;;;;;4.72;2.47;;;18.10;61.50;;;;;;4953203;28;20544;-76
2022/07/08 02:42:51;;;;;;;4.18;2.60;;;18.10;61.60;;;;;;4931571;28;20493;-77
2022/07/08 02:45:17;;;;;;;3.53;2.03;;;18.10;61.60;;;;;;4957151;28;20058;-76
2022/07/08 02:47:43;;;;;;;3.15;2.25;;;18.10;61.70;;;;;;4948337;28;20154;-77
2022/07/08 02:50:09;;;;;;;3.40;2.03;;;18.00;61.60;;;;;;4970719;28;20054;-77
2022/07/08 02:52:35;;;;;;;3.70;2.58;;;18.00;61.60;;;;;;4935194;28;20034;-76
2022/07/08 02:55:01;;;;;;;4.35;2.55;;;17.90;61.50;;;;;;4932912;28;20039;-78
2022/07/08 02:57:27;;;;;;;2.97;2.67;;;17.90;61.60;;;;;;4946100;28;20319;-77
2022/07/08 02:59:53;;;;;;;3.95;1.90;;;17.90;61.70;;;;;;4935124;28;20182;-77
2022/07/08 03:02:19;;;;;;;4.05;2.35;;;17.80;61.60;;;;;;4956354;28;20038;-77
2022/07/08 03:04:45;;;;;;;3.97;2.85;;;17.80;61.60;;;;;;4939777;28;20028;-76
2022/07/08 03:07:11;;;;;;;3.03;2.40;;;17.80;61.70;;;;;;4917998;28;20050;-76
2022/07/08 03:09:37;;;;;;;5.05;2.35;;;17.70;61.60;;;;;;4957024;28;20097;-77
2022/07/08 03:12:04;;;;;;;4.28;2.83;;;17.70;61.60;;;;;;4955175;28;20490;-76
2022/07/08 03:14:30;;;;;;;5.00;2.72;;;17.70;61.70;;;;;;4934474;28;20042;-78
2022/07/08 03:16:56;;;;;;;2.80;2.60;;;17.60;61.60;;;;;;4953291;28;20054;-76
2022/07/08 03:19:21;;;;;;;4.00;2.53;;;17.60;61.60;;;;;;4948725;28;20067;-78
2022/07/08 03:21:47;;;;;;;3.50;1.92;;;17.60;61.70;;;;;;4919449;28;20528;-76
2022/07/08 03:24:13;;;;;;;2.80;2.03;;;17.60;61.80;;;;;;4955384;28;20058;-76
2022/07/08 03:26:39;;;;;;;4.10;2.22;;;17.60;61.90;;;;;;4938464;28;20031;-77
2022/07/08 03:29:05;;;;;;;3.35;2.10;;;17.50;61.70;;;;;;4949682;28;20057;-77
2022/07/08 03:31:31;;;;;;;2.28;1.88;;;17.50;61.80;;;;;;4958353;28;20086;-76
2022/07/08 03:33:58;;;;;;;2.65;1.70;;;17.50;61.80;;;;;;4925398;28;20046;-76
2022/07/08 03:36:24;;;;;;;3.30;2.00;;;17.50;61.90;;;;;;4949577;28;20047;-77
2022/07/08 03:38:50;;;;;;;2.42;1.80;;;17.40;61.70;;;;;;4959664;28;20062;-78
2022/07/08 03:41:23;;;;;;;2.15;1.90;;;17.40;61.70;;;;;;4918460;28;20027;-78
2022/07/08 03:43:52;;;;;;;3.38;2.08;;;17.40;61.80;;;;;;4943717;28;20067;-77
2022/07/08 03:46:19;;;;;;;2.00;1.85;;;17.40;61.80;;;;;;4934934;28;20110;-78
2022/07/08 03:48:45;;;;;;;2.78;2.10;;;17.40;61.80;;;;;;4949526;28;20023;-78
2022/07/08 03:51:11;;;;;;;2.53;1.80;;;17.30;61.70;;;;;;4952466;28;20497;-77
2022/07/08 03:53:37;;;;;;;3.13;2.10;;;17.30;61.80;;;;;;4947954;28;20042;-78
2022/07/08 03:56:05;;;;;;;3.90;1.90;;;17.20;61.60;;;;;;4931061;28;20043;-80
2022/07/08 03:58:32;;;;;;;4.10;2.10;;;17.20;61.80;;;;;;4930859;28;20161;-77
2022/07/08 04:00:58;;;;;;;2.95;1.92;;;17.20;61.80;;;;;;4932497;28;20034;-76
2022/07/08 04:03:24;;;;;;;2.50;2.28;;;17.20;61.80;;;;;;4946198;28;20489;-75
2022/07/08 04:05:50;;;;;;;2.15;1.73;;;17.10;61.70;;;;;;4945693;28;20039;-77
2022/07/08 04:08:16;;;;;;;2.33;1.80;;;17.10;61.70;;;;;;4942479;28;20123;-78
2022/07/08 04:10:42;;;;;;;2.17;1.98;;;17.10;61.80;;;;;;4947180;28;20056;-78
2022/07/08 04:13:08;;;;;;;3.70;2.28;;;17.10;61.80;;;;;;4940873;28;20700;-78
2022/07/08 04:15:34;;;;;;;2.40;2.20;;;17.00;61.70;;;;;;4947502;28;20035;-77
2022/07/08 04:18:00;;;;;;;3.63;1.95;;;17.00;61.70;;;;;;4921331;28;20039;-77
2022/07/08 04:20:26;;;;;;;2.28;1.77;;;17.00;62.00;;;;;;4929788;28;20059;-78
2022/07/08 04:22:52;;;;;;;2.05;1.85;;;17.00;61.80;;;;;;4927255;28;20065;-77
2022/07/08 04:25:18;;;;;;;2.38;1.95;;;17.00;61.80;;;;;;4947586;28;20560;-78
2022/07/08 04:27:44;;;;;;;1.67;1.50;;;17.00;61.80;;;;;;4924960;28;20377;-77
2022/07/08 04:30:10;;;;;;;1.60;1.50;;;17.00;61.90;;;;;;4927127;28;20027;-77
2022/07/08 04:32:36;;;;;;;1.70;1.60;;;17.00;61.90;;;;;;4946925;28;20305;-77
2022/07/08 04:35:02;;;;;;;1.75;1.52;;;17.00;61.90;;;;;;4943414;28;20397;-77
2022/07/08 04:37:28;;;;;;;1.73;1.55;;;16.90;61.70;;;;;;4940813;28;20111;-77
2022/07/08 04:39:54;;;;;;;3.40;1.90;;;16.90;61.70;;;;;;4944286;28;20070;-77
2022/07/08 04:42:21;;;;;;;1.60;1.40;;;16.90;61.70;;;;;;4943914;28;20059;-78
2022/07/08 04:44:47;;;;;;;1.60;1.50;;;16.90;61.70;;;;;;4923657;28;20050;-76
2022/07/08 04:47:13;;;;;;;2.42;1.50;;;16.90;61.80;;;;;;4927286;28;20249;-77
2022/07/08 04:49:39;;;;;;;1.38;1.27;;;16.90;61.80;;;;;;4942541;28;20074;-76
2022/07/08 04:52:06;;;;;;;1.60;1.23;;;16.90;61.80;;;;;;4924689;28;20066;-77
2022/07/08 04:54:38;;;;;;;1.92;1.30;;;16.90;61.80;;;;;;4952367;28;20114;-77
2022/07/08 04:57:05;;;;;;;1.30;1.20;;;16.90;61.80;;;;;;4920215;28;20031;-77
2022/07/08 04:59:32;;;;;;;1.95;1.40;;;16.90;61.70;;;;;;4926744;28;20039;-78
2022/07/08 05:01:58;;;;;;;1.63;1.10;;;16.90;61.80;;;;;;4927882;28;20035;-78
2022/07/08 05:04:23;;;;;;;1.25;1.15;;;16.90;61.70;;;;;;4944998;28;20035;-79
2022/07/08 05:06:49;;;;;;;1.50;1.40;;;16.90;61.70;;;;;;4940321;28;20035;-78
2022/07/08 05:09:15;;;;;;;2.00;1.33;;;16.90;61.70;;;;;;4924282;29;20079;-77
2022/07/08 05:11:41;;;;;;;1.90;1.70;;;16.90;61.70;;;;;;4924065;28;20325;-78
2022/07/08 05:14:12;;;;;;;1.38;1.25;;;17.00;61.90;;;;;;4920825;28;20093;-77
2022/07/08 05:16:40;;;;;;;3.05;1.45;;;17.00;61.90;;;;;;4942885;28;20033;-77
2022/07/08 05:19:07;;;;;;;1.88;1.60;;;17.00;61.80;;;;;;4945700;28;20043;-77
2022/07/08 05:21:36;;;;;;;1.33;1.23;;;17.10;61.90;;;;;;4940570;28;20368;-79
2022/07/08 05:24:04;;;;;;;1.63;1.52;;;17.10;61.80;;;;;;4945314;28;20338;-78
2022/07/08 05:26:30;;;;;;;1.50;1.40;;;17.20;61.80;;;;;;4949342;28;20082;-76
2022/07/08 05:28:56;;;;;;;2.25;1.52;;;17.30;61.90;;;;;;4946449;28;20039;-78
2022/07/08 05:31:22;;;;;;;1.92;1.45;;;17.40;61.90;;;;;;4945352;28;20114;-79
2022/07/08 05:33:48;;;;;;;2.50;1.50;;;17.40;61.80;;;;;;4944179;28;20107;-77
2022/07/08 05:36:14;;;;;;;3.38;1.30;;;17.60;62.00;;;;;;4945215;28;20106;-77
2022/07/08 05:38:40;;;;;;;2.78;1.73;;;17.80;62.20;;;;;;4942830;28;21216;-78
2022/07/08 05:41:06;;;;;;;1.40;1.30;;;17.90;62.20;;;;;;4927930;28;20105;-78
2022/07/08 05:43:32;;;;;;;1.42;1.33;;;18.00;62.10;;;;;;4942567;28;20035;-78
2022/07/08 05:45:58;;;;;;;1.30;1.20;;;18.20;62.20;;;;;;4944665;28;20043;-78
2022/07/08 05:48:24;;;;;;;1.58;1.08;;;18.30;62.20;;;;;;4944597;28;20035;-77
2022/07/08 05:50:50;;;;;;;2.10;1.10;;;18.60;62.50;;;;;;4926239;28;20090;-77
2022/07/08 05:53:16;;;;;;;3.47;1.40;;;18.80;62.50;;;;;;4949859;28;20035;-83
2022/07/08 05:55:43;;;;;;;2.65;1.60;;;19.00;62.50;;;;;;4947135;28;20082;-81
2022/07/08 05:58:09;;;;;;;2.20;1.45;;;19.30;62.70;;;;;;4948974;28;20424;-79
2022/07/08 06:00:35;;;;;;;2.00;1.58;;;19.50;62.60;;;;;;4946286;28;20186;-80
2022/07/08 06:03:04;;;;;;;1.80;1.60;;;19.80;62.70;;;;;;4945214;28;20371;-79
2022/07/08 06:05:32;;;;;;;2.05;1.55;;;20.10;62.70;;;;;;4928624;28;20035;-77
2022/07/08 06:07:58;;;;;;;5.68;2.33;;;20.40;62.80;;;;;;4928849;28;20085;-77
2022/07/08 06:10:26;;;;;;;3.33;1.80;;;20.70;62.90;;;;;;4934672;28;20031;-78
2022/07/08 06:12:53;;;;;;;7.22;2.05;;;21.00;63.00;;;;;;4947281;28;20027;-79
2022/07/08 06:15:20;;;;;;;5.00;2.15;;;21.30;63.10;;;;;;4942863;28;20066;-78
2022/07/08 06:17:47;;;;;;;4.15;2.10;;;21.60;63.20;;;;;;4942111;28;20086;-74
2022/07/08 06:20:14;;;;;;;4.80;2.58;;;21.80;63.10;;;;;;4940988;28;20221;-75
2022/07/08 06:22:41;;;;;;;3.10;2.08;;;22.10;63.20;;;;;;4925934;28;20367;-75
2022/07/08 06:25:07;;;;;;;4.35;1.80;;;22.50;63.50;;;;;;4915677;28;20475;-76
2022/07/08 06:27:33;;;;;;;3.83;1.70;;;22.80;63.30;;;;;;4945253;28;20856;-80
2022/07/08 06:29:59;;;;;;;2.00;1.80;;;23.30;63.30;;;;;;4928637;28;20042;-79
2022/07/08 06:32:25;;;;;;;3.45;1.63;;;23.90;63.10;;;;;;4944876;28;20020;-80
2022/07/08 06:34:51;;;;;;;3.40;1.83;;;24.50;62.90;;;;;;4945269;28;20575;-81
2022/07/08 06:37:17;;;;;;;3.05;1.80;;;25.00;62.30;;;;;;4946342;28;20047;-81
2022/07/08 06:39:43;;;;;;;3.92;2.10;;;25.60;61.40;;;;;;4944978;28;20051;-81
2022/07/08 06:42:09;;;;;;;2.30;1.73;;;26.10;60.60;;;;;;4931630;28;20572;-84
2022/07/08 06:44:36;;;;;;;4.47;2.22;;;26.50;59.70;;;;;;4930183;28;20257;-81
2022/07/08 06:47:02;;;;;;;3.05;1.52;;;27.00;59.00;;;;;;4963597;28;20129;-81
2022/07/08 06:49:28;;;;;;;3.35;1.80;;;27.40;58.20;;;;;;4930614;28;20130;-77
2022/07/08 06:51:54;;;;;;;4.00;1.80;;;27.80;57.60;;;;;;4925974;28;20590;-76
2022/07/08 06:54:35;;;;;;;2.63;1.92;;;28.20;57.10;;;;;;4931395;28;20023;-83
2022/07/08 06:57:02;;;;;;;4.10;1.60;;;28.60;56.50;;;;;;4944937;28;20035;-82
2022/07/08 06:59:28;;;;;;;2.42;1.40;;;29.00;55.90;;;;;;4920089;28;20420;-81
2022/07/08 07:01:54;;;;;;;2.67;1.70;;;29.40;55.40;;;;;;4939930;28;20038;-84
2022/07/08 07:04:20;;;;;;;2.63;1.63;;;29.70;54.80;;;;;;4943592;28;20397;-84
2022/07/08 07:06:47;;;;;;;1.63;1.40;;;30.10;54.30;;;;;;4926838;28;20086;-83
2022/07/08 07:09:14;;;;;;;3.25;1.80;;;30.50;53.90;;;;;;4945126;28;20031;-84
2022/07/08 07:11:40;;;;;;;2.50;1.60;;;30.80;53.40;;;;;;4947071;28;20456;-83
2022/07/08 07:14:07;;;;;;;2.03;1.42;;;31.20;52.90;;;;;;4943806;28;20110;-85
2022/07/08 07:16:33;;;;;;;2.15;1.45;;;31.50;52.30;;;;;;4930454;28;20127;-83
2022/07/08 07:18:59;;;;;;;1.75;1.55;;;31.80;51.70;;;;;;4949738;28;20078;-85
2022/07/08 07:21:25;;;;;;;2.38;1.50;;;32.20;51.20;;;;;;4927675;28;20440;-83
2022/07/08 07:23:51;;;;;;;3.15;1.30;;;32.50;50.70;;;;;;4941091;28;20036;-84
2022/07/08 07:26:17;;;;;;;2.50;1.75;;;32.80;50.10;;;;;;4944572;28;20461;-83
2022/07/08 07:28:43;;;;;;;1.85;1.30;;;33.00;49.80;;;;;;4946832;28;20031;-83
2022/07/08 07:31:09;;;;;;;2.97;1.40;;;33.10;49.80;;;;;;4922906;28;20141;-82
2022/07/08 07:33:36;;;;;;;2.05;1.50;;;33.10;49.80;;;;;;4945767;28;20035;-80
2022/07/08 07:36:02;;;;;;;2.47;1.45;;;33.10;49.90;;;;;;4948663;28;20269;-77
2022/07/08 07:38:28;;;;;;;2.25;1.42;;;33.10;49.90;;;;;;4944990;28;20138;-80
2022/07/08 07:40:54;;;;;;;2.67;1.65;;;33.20;49.60;;;;;;4951785;28;20031;-80
2022/07/08 07:43:20;;;;;;;2.28;1.48;;;33.60;49.10;;;;;;4945290;28;20023;-81
2022/07/08 07:45:46;;;;;;;2.13;1.30;;;34.00;48.30;;;;;;4929077;28;20039;-81
2022/07/08 07:48:12;;;;;;;1.35;0.95;;;34.40;47.40;;;;;;4919374;28;20050;-81
2022/07/08 07:50:38;;;;;;;2.58;1.20;;;34.80;46.60;;;;;;4945063;28;20027;-82
2022/07/08 07:53:04;;;;;;;1.83;1.05;;;35.30;45.90;;;;;;4947268;28;20038;-82
2022/07/08 07:55:30;;;;;;;1.60;0.82;;;35.80;45.20;;;;;;4929654;28;20039;-82
2022/07/08 07:57:56;;;;;;;1.00;0.90;;;36.20;44.40;;;;;;4927035;28;20048;-83
2022/07/08 08:00:22;;;;;;;1.65;1.30;;;36.60;43.80;;;;;;4928446;28;20036;-80
2022/07/08 08:02:48;;;;;;;2.22;1.00;;;36.90;43.20;;;;;;4920647;28;20031;-78
2022/07/08 08:05:14;;;;;;;1.58;1.10;;;37.20;42.80;;;;;;4945660;28;20037;-80
2022/07/08 08:07:40;;;;;;;1.35;1.10;;;37.40;42.50;;;;;;4941577;28;20059;-79
2022/07/08 08:10:08;;;;;;;1.45;0.80;;;37.30;42.50;;;;;;4919666;28;20341;-78
2022/07/08 08:12:34;;;;;;;0.65;0.60;;;36.90;42.70;;;;;;4939033;28;20960;-77
2022/07/08 08:15:00;;;;;;;1.35;0.85;;;36.50;43.30;;;;;;4942061;28;20136;-76
2022/07/08 08:17:26;;;;;;;2.55;1.30;;;36.20;43.90;;;;;;4922244;28;20060;-75
2022/07/08 08:19:52;;;;;;;0.88;0.70;;;35.80;44.30;;;;;;4938918;28;20042;-75
2022/07/08 08:22:18;;;;;;;1.25;0.80;;;35.50;44.60;;;;;;4939913;28;20043;-75
2022/07/08 08:24:44;;;;;;;0.60;0.47;;;35.30;44.80;;;;;;4939449;28;20047;-75
2022/07/08 08:27:11;;;;;;;1.13;0.75;;;35.00;44.90;;;;;;4921057;28;20477;-75
2022/07/08 08:29:36;;;;;;;0.70;0.60;;;34.80;44.90;;;;;;4937024;28;20505;-75
2022/07/08 08:32:03;;;;;;;1.33;0.80;;;34.70;45.10;;;;;;4923133;28;20031;-74
2022/07/08 08:34:28;;;;;;;1.10;0.70;;;34.50;45.10;;;;;;4926296;28;20492;-75
2022/07/08 08:36:54;;;;;;;1.58;0.50;;;34.50;45.10;;;;;;4940545;28;20027;-75
2022/07/08 08:39:20;;;;;;;1.05;0.80;;;34.40;45.00;;;;;;4941244;28;20041;-76
2022/07/08 08:41:46;;;;;;;1.42;0.80;;;34.30;45.00;;;;;;4918898;29;20027;-75
2022/07/08 08:44:12;;;;;;;1.67;0.68;;;34.30;45.00;;;;;;4922311;28;20085;-75
2022/07/08 08:46:40;;;;;;;1.75;0.80;;;34.20;45.50;;;;;;4922714;28;20134;-75
2022/07/08 08:49:08;;;;;;;1.02;0.90;;;34.20;44.80;;;;;;4926458;28;20265;-76
2022/07/08 08:51:36;;;;;;;1.10;1.00;;;34.10;44.70;;;;;;4937977;28;20031;-76
2022/07/08 08:54:04;;;;;;;3.20;1.05;;;34.10;44.50;;;;;;4944967;28;20039;-76
2022/07/08 08:56:30;;;;;;;1.08;0.63;;;34.10;44.50;;;;;;4944349;28;20035;-76
2022/07/08 08:58:58;;;;;;;0.98;0.77;;;34.10;44.50;;;;;;4922326;28;20045;-79
2022/07/08 09:01:24;;;;;;;1.00;0.60;;;34.10;44.40;;;;;;4943083;28;20032;-78
2022/07/08 09:03:50;;;;;;;0.65;0.45;;;34.10;44.30;;;;;;4940052;28;20039;-78
2022/07/08 09:06:16;;;;;;;1.20;0.88;;;34.10;44.20;;;;;;4923904;28;20079;-85
2022/07/08 09:08:42;;;;;;;0.95;0.60;;;34.20;44.20;;;;;;4943524;28;20039;-84
2022/07/08 09:11:08;;;;;;;1.15;0.77;;;34.20;44.20;;;;;;4940123;28;20032;-81
2022/07/08 09:13:34;;;;;;;1.55;0.75;;;34.20;44.10;;;;;;4939979;28;20038;-82
2022/07/08 09:16:00;;;;;;;1.00;0.80;;;34.30;44.00;;;;;;4943643;28;20035;-84
2022/07/08 09:18:32;;;;;;;1.60;0.70;;;34.30;43.90;;;;;;4951563;28;20035;-78
2022/07/08 09:20:59;;;;;;;0.88;0.50;;;34.40;43.80;;;;;;4936371;28;20476;-77
2022/07/08 09:23:30;;;;;;;1.15;0.70;;;34.40;43.70;;;;;;4962042;28;20090;-84
2022/07/08 09:25:58;;;;;;;0.93;0.80;;;34.40;43.50;;;;;;4943344;28;20312;-84
2022/07/08 09:28:34;;;;;;;1.50;0.80;;;34.50;43.40;;;;;;4943249;28;20038;-82
2022/07/08 09:31:02;;;;;;;2.90;1.33;;;34.50;43.20;;;;;;4942209;28;20032;-79
2022/07/08 09:33:28;;;;;;;1.23;0.75;;;34.60;43.30;;;;;;4940567;28;20370;-78
2022/07/08 09:35:56;;;;;;;1.27;0.80;;;34.60;43.10;;;;;;4921310;28;20099;-86
2022/07/08 09:38:23;;;;;;;1.55;0.85;;;34.70;42.90;;;;;;4949912;28;20171;-81
2022/07/08 09:41:02;;;;;;;2.15;1.27;;;34.80;42.80;;;;;;4940637;28;20417;-80
2022/07/08 09:43:28;;;;;;;0.50;0.50;;;34.90;42.50;;;;;;4939352;28;20481;-83
2022/07/08 09:46:02;;;;;;;0.85;0.70;;;35.00;42.70;;;;;;4928365;29;20032;-85
2022/07/08 09:48:29;;;;;;;0.93;0.50;;;35.10;42.50;;;;;;4927065;28;20027;-81
2022/07/08 09:50:55;;;;;;;0.65;0.50;;;35.30;42.40;;;;;;4946802;28;20048;-81
2022/07/08 09:53:25;;;;;;;0.70;0.70;;;35.40;42.30;;;;;;4947525;28;20505;-81
2022/07/08 09:55:52;;;;;;;1.80;0.77;;;35.50;42.00;;;;;;4942480;28;20435;-78
2022/07/08 09:58:29;;;;;;;0.60;0.50;;;35.70;42.00;;;;;;4940019;28;20047;-79
2022/07/08 10:00:57;;;;;;;0.82;0.60;;;35.60;41.80;;;;;;4941401;28;20034;-77
2022/07/08 10:03:24;;;;;;;0.40;0.40;;;35.50;42.00;;;;;;4927445;28;20485;-79
2022/07/08 10:05:50;;;;;;;0.85;0.60;;;35.40;42.20;;;;;;4944948;28;20024;-78
2022/07/08 10:08:18;;;;;;;1.52;0.70;;;35.20;42.30;;;;;;4942783;28;20259;-79
2022/07/08 10:10:46;;;;;;;1.02;0.65;;;35.20;42.50;;;;;;4927028;28;20138;-79
2022/07/08 10:13:14;;;;;;;0.68;0.32;;;35.30;42.40;;;;;;4939130;28;20038;-78
2022/07/08 10:15:41;;;;;;;0.60;0.60;;;35.30;42.30;;;;;;4944360;28;20031;-78
2022/07/08 10:18:25;;;;;;;0.63;0.60;;;35.40;42.30;;;;;;4945870;28;20050;-79
2022/07/08 10:20:57;;;;;;;2.05;0.60;;;35.50;42.20;;;;;;4944525;28;20038;-84
2022/07/08 10:23:33;;;;;;;1.83;0.70;;;35.60;42.10;;;;;;4929383;28;20027;-79
2022/07/08 10:26:00;;;;;;;0.98;0.50;;;35.70;42.00;;;;;;4944767;28;20031;-78
2022/07/08 10:28:37;;;;;;;1.10;0.60;;;35.70;41.90;;;;;;4926608;28;20457;-78
2022/07/08 10:31:18;;;;;;;0.98;0.57;;;35.70;41.80;;;;;;4944750;28;20027;-78
2022/07/08 10:33:45;;;;;;;0.70;0.47;;;35.80;41.80;;;;;;4943096;28;20039;-82
2022/07/08 10:36:11;;;;;;;0.90;0.57;;;35.80;41.70;;;;;;4939997;28;20400;-80
2022/07/08 10:38:39;;;;;;;1.27;0.55;;;35.90;41.60;;;;;;4946317;28;20402;-80
2022/07/08 10:41:13;;;;;;;1.45;0.70;;;36.00;41.60;;;;;;4943177;28;20027;-82
2022/07/08 10:44:06;;;;;;;1.13;0.60;;;36.00;40.70;;;;;;4948058;28;20066;-83
2022/07/08 10:46:32;;;;;;;0.75;0.60;;;35.80;39.70;;;;;;4944136;28;20102;-79
2022/07/08 10:48:59;;;;;;;2.05;1.23;;;35.50;39.90;;;;;;4927736;28;20771;-78
2022/07/08 10:51:29;;;;;;;1.33;0.70;;;35.10;39.50;;;;;;4929484;28;20818;-79
2022/07/08 10:54:01;;;;;;;3.70;1.00;;;34.70;39.30;;;;;;4947551;28;20035;-80
2022/07/08 10:56:49;;;;;;;3.55;1.00;;;34.30;39.30;;;;;;4944840;28;20031;-83
2022/07/08 10:59:17;;;;;;;0.80;0.80;;;34.10;39.40;;;;;;4943466;28;20185;-78
2022/07/08 11:01:53;;;;;;;2.38;1.17;;;33.90;39.70;;;;;;4948409;28;20404;-78
2022/07/08 11:04:21;;;;;;;1.90;1.05;;;33.70;39.70;;;;;;4959331;28;20034;-77
2022/07/08 11:06:47;;;;;;;1.23;0.80;;;33.60;39.70;;;;;;4940035;28;20450;-78
2022/07/08 11:09:17;;;;;;;1.05;0.90;;;33.50;39.70;;;;;;4924475;28;20043;-77
2022/07/08 11:11:45;;;;;;;2.67;0.90;;;33.40;39.60;;;;;;4914877;28;20028;-77
2022/07/08 11:14:15;;;;;;;2.42;1.45;;;33.30;39.60;;;;;;4942359;28;20038;-78
2022/07/08 11:16:42;;;;;;;1.70;1.15;;;33.20;39.50;;;;;;4921286;28;20030;-78
2022/07/08 11:19:08;;;;;;;1.77;1.02;;;33.20;39.50;;;;;;4943364;28;20042;-75
2022/07/08 11:21:34;;;;;;;3.10;0.90;;;33.10;39.50;;;;;;4941161;28;20491;-76
2022/07/08 11:24:00;;;;;;;1.50;1.20;;;32.90;39.60;;;;;;4942018;28;20035;-75
2022/07/08 11:26:26;;;;;;;1.63;1.00;;;32.90;39.90;;;;;;4945122;28;20034;-75
2022/07/08 11:28:52;;;;;;;2.10;1.02;;;32.90;40.00;;;;;;4942159;28;20138;-74
2022/07/08 11:31:25;;;;;;;2.90;1.63;;;32.90;40.00;;;;;;4924937;28;20788;-77
2022/07/08 11:33:51;;;;;;;3.28;1.63;;;33.00;39.90;;;;;;4941971;28;20775;-75
2022/07/08 11:36:18;;;;;;;1.38;1.20;;;33.00;40.00;;;;;;4942195;28;20258;-76
2022/07/08 11:38:45;;;;;;;2.47;0.98;;;33.00;40.00;;;;;;4952053;28;20516;-76
2022/07/08 11:41:12;;;;;;;1.77;1.00;;;33.00;40.00;;;;;;4924015;28;20051;-75
2022/07/08 11:43:38;;;;;;;1.77;0.80;;;33.00;40.00;;;;;;4923990;28;20035;-75
2022/07/08 11:46:15;;;;;;;3.85;1.40;;;33.00;40.00;;;;;;4926209;28;20027;-76
2022/07/08 11:48:40;;;;;;;2.08;1.13;;;32.90;39.80;;;;;;4943476;28;20038;-76
2022/07/08 11:51:06;;;;;;;1.33;1.05;;;33.00;40.00;;;;;;4941985;28;20031;-76
2022/07/08 11:53:32;;;;;;;1.08;0.98;;;32.90;40.00;;;;;;4952871;28;20031;-76
2022/07/08 11:55:58;;;;;;;3.45;1.10;;;33.00;40.20;;;;;;4922028;28;20184;-78
2022/07/08 11:58:25;;;;;;;2.95;1.48;;;33.00;40.20;;;;;;4929460;28;20116;-77
2022/07/08 12:00:52;;;;;;;3.88;1.50;;;33.00;40.30;;;;;;4926801;28;20035;-75
2022/07/08 12:03:18;;;;;;;2.15;1.20;;;33.00;40.30;;;;;;4936654;28;20147;-76
2022/07/08 12:05:47;;;;;;;2.30;1.10;;;33.00;40.30;;;;;;4939278;28;20178;-76
2022/07/08 12:08:13;;;;;;;3.90;1.67;;;33.00;40.40;;;;;;4925351;28;20039;-75
2022/07/08 12:10:39;;;;;;;1.85;1.00;;;33.00;40.50;;;;;;4944387;28;20142;-79
2022/07/08 12:13:05;;;;;;;2.33;1.23;;;33.00;40.50;;;;;;4937736;28;20035;-75
2022/07/08 12:15:37;;;;;;;2.10;1.08;;;33.00;40.40;;;;;;4927333;28;20423;-78
2022/07/08 12:18:04;;;;;;;2.42;1.38;;;33.10;40.30;;;;;;4942227;28;20106;-77
2022/07/08 12:20:35;;;;;;;2.10;1.00;;;33.10;40.40;;;;;;4913762;28;20031;-74
2022/07/08 12:23:01;;;;;;;1.20;0.80;;;33.00;40.20;;;;;;4951790;28;20082;-77
2022/07/08 12:25:28;;;;;;;2.65;1.58;;;33.00;40.40;;;;;;4939890;28;20071;-77
2022/07/08 12:27:56;;;;;;;1.05;0.82;;;33.00;40.40;;;;;;4940950;28;20556;-77
2022/07/08 12:30:29;;;;;;;1.63;1.42;;;33.00;40.30;;;;;;4939748;28;20070;-76
2022/07/08 12:33:03;;;;;;;1.70;1.08;;;33.10;40.20;;;;;;4944087;28;20416;-77
2022/07/08 12:35:33;;;;;;;2.58;1.13;;;33.10;40.20;;;;;;4943929;28;20902;-77
2022/07/08 12:38:03;;;;;;;1.27;1.02;;;33.10;40.20;;;;;;4918078;28;20414;-77
2022/07/08 12:40:44;;;;;;;1.27;0.90;;;33.10;40.20;;;;;;4948062;28;20564;-77
2022/07/08 12:43:11;;;;;;;2.33;1.08;;;33.20;40.30;;;;;;4946759;28;20055;-76
2022/07/08 12:45:38;;;;;;;1.48;0.98;;;33.20;40.30;;;;;;4934047;28;20063;-77
2022/07/08 12:48:04;;;;;;;2.80;1.30;;;33.20;40.20;;;;;;4960432;28;20453;-78
2022/07/08 12:50:32;;;;;;;2.08;1.48;;;33.30;40.20;;;;;;4955692;28;20027;-79